Terminal Aerodrome Forecast
Issued by NWS Knoxville/Tri Cities, TN

Home | Current Version | Previous Version | Text Only | Print | Product List | Glossary On
Versions: 1 2 3 4 5 6 7 8 9 10 11 12 13 14 15 16 17 18 19 20 21 22 23 24 25 26 27 28 29 30 31 32 33
000
FTUS44 KMRX 280525
TAFTRI
TAF
KTRI 280525Z 2806/2906 00000KT P6SM SCT050 BKN200
     FM280900 00000KT 5SM BR FEW040 BKN150
     FM281200 VRB03KT P6SM SCT040 BKN120
     FM281900 23005KT P6SM VCSH BKN040 OVC100
     FM282300 VRB04KT P6SM VCTS BKN035CB OVC080
     FM290300 VRB03KT 5SM -SHRA BR BKN030 OVC060=

USA.gov is the U.S. government's official web portal to all federal, state and local government web resources and services.